Time;durP1;ratioP1;P1;durP2;ratioP2;P2;SDS_P1;SDS_P2;PMS_P1;PMS_P2;Temp;Humidity;BMP_temperature;BMP_pressure;BME280_temperature;BME280_humidity;BME280_pressure;Samples;Min_cycle;Max_cycle;Signal;HPM_P1;HPM_P2
2021/08/11 00:00:57;;;;;;;3.60;3.30;;;;;;;20.46;70.11;100594.81;4975985;28;20487;-82
2021/08/11 00:03:22;;;;;;;6.77;3.00;;;;;;;20.44;70.13;100593.50;4971942;28;20783;-82
2021/08/11 00:05:48;;;;;;;3.90;3.22;;;;;;;20.48;70.07;100589.81;4984615;28;20414;-82
2021/08/11 00:08:13;;;;;;;9.03;5.03;;;;;;;20.46;69.87;100585.75;4973750;28;20431;-82
2021/08/11 00:10:39;;;;;;;3.30;3.00;;;;;;;20.42;70.14;100592.97;4972807;28;20396;-82
2021/08/11 00:13:04;;;;;;;6.95;3.60;;;;;;;20.39;70.49;100596.34;4972106;28;20417;-81
2021/08/11 00:15:30;;;;;;;5.87;3.27;;;;;;;20.36;70.86;100591.47;4980820;28;20406;-82
2021/08/11 00:17:55;;;;;;;7.13;3.30;;;;;;;20.34;70.65;100597.28;4974373;28;20511;-82
2021/08/11 00:20:22;;;;;;;5.43;3.07;;;;;;;20.33;70.32;100589.31;4983804;28;20404;-82
2021/08/11 00:22:47;;;;;;;4.30;3.42;;;;;;;20.27;70.32;100588.63;4971798;28;20875;-81
2021/08/11 00:25:12;;;;;;;6.37;3.20;;;;;;;20.23;70.72;100587.56;4979543;28;20390;-81
2021/08/11 00:27:38;;;;;;;3.20;2.90;;;;;;;20.18;70.86;100593.19;4975193;28;20404;-82
2021/08/11 00:30:03;;;;;;;8.52;3.45;;;;;;;20.12;71.10;100586.16;4973795;28;20488;-81
2021/08/11 00:32:29;;;;;;;5.57;3.00;;;;;;;20.10;70.83;100596.63;4986694;28;20767;-82
2021/08/11 00:34:54;;;;;;;3.93;3.00;;;;;;;20.07;71.16;100602.75;4980127;28;20427;-82
2021/08/11 00:37:19;;;;;;;4.70;3.00;;;;;;;20.05;70.92;100599.50;4971749;28;20929;-82
2021/08/11 00:39:45;;;;;;;4.67;3.60;;;;;;;20.03;70.90;100597.03;4984856;28;20805;-82
2021/08/11 00:42:10;;;;;;;4.82;2.92;;;;;;;20.00;71.04;100589.38;4984361;28;20868;-81
2021/08/11 00:44:36;;;;;;;8.77;3.07;;;;;;;19.98;71.21;100596.31;4985378;28;20755;-81
2021/08/11 00:47:04;;;;;;;4.90;2.97;;;;;;;19.93;71.04;100597.22;4971896;28;20495;-82
2021/08/11 00:49:29;;;;;;;6.35;2.92;;;;;;;19.90;71.41;100605.25;4972171;28;20435;-82
2021/08/11 00:51:54;;;;;;;5.77;2.50;;;;;;;19.84;71.60;100598.22;4989301;28;20815;-82
2021/08/11 00:54:21;;;;;;;4.23;2.83;;;;;;;19.78;72.01;100602.19;4972151;28;20435;-81
2021/08/11 00:56:49;;;;;;;6.97;2.72;;;;;;;19.76;71.77;100594.22;4968565;28;20455;-82
2021/08/11 00:59:17;;;;;;;6.97;2.78;;;;;;;19.77;71.78;100592.28;4970134;28;20419;-81
2021/08/11 01:01:48;;;;;;;4.68;3.08;;;;;;;19.75;71.63;100589.03;4971380;28;20438;-82
2021/08/11 01:04:17;;;;;;;2.97;2.65;;;;;;;19.69;71.71;100585.59;4972626;28;20385;-82
2021/08/11 01:06:43;;;;;;;4.73;3.00;;;;;;;19.65;72.02;100587.28;4971151;28;20899;-81
2021/08/11 01:09:15;;;;;;;3.75;3.10;;;;;;;19.63;72.16;100598.59;4964657;28;20406;-81
2021/08/11 01:11:44;;;;;;;3.45;2.97;;;;;;;19.62;72.37;100596.16;4980175;28;20431;-81
2021/08/11 01:14:09;;;;;;;5.88;3.03;;;;;;;19.60;72.28;100596.44;4972622;28;20389;-81
2021/08/11 01:16:34;;;;;;;6.63;3.03;;;;;;;19.59;72.29;100586.53;4971307;28;20438;-82
2021/08/11 01:19:00;;;;;;;5.60;3.30;;;;;;;19.59;72.06;100594.78;4972511;28;20399;-81
2021/08/11 01:21:38;;;;;;;4.53;2.80;;;;;;;19.58;71.99;100595.94;4972782;28;20473;-81
2021/08/11 01:24:08;;;;;;;5.30;3.20;;;;;;;19.56;71.90;100589.13;4976075;28;20445;-82
2021/08/11 01:27:05;;;;;;;4.25;3.00;;;;;;;19.54;71.92;100589.41;4986139;28;20918;-82
2021/08/11 01:29:59;;;;;;;4.80;3.17;;;;;;;19.51;71.72;100589.19;4972122;28;20875;-81
2021/08/11 01:32:45;;;;;;;4.75;3.15;;;;;;;19.47;72.17;100585.41;4976359;28;20423;-81
2021/08/11 01:35:13;;;;;;;3.25;2.72;;;;;;;19.44;72.02;100580.50;4969909;28;20416;-81
2021/08/11 01:37:40;;;;;;;7.07;2.90;;;;;;;19.40;72.02;100579.44;4974015;28;20423;-81
2021/08/11 01:40:08;;;;;;;3.45;2.75;;;;;;;19.38;71.80;100574.25;4990958;28;20507;-82
2021/08/11 01:42:38;;;;;;;5.50;2.83;;;;;;;19.36;71.82;100578.44;4980734;28;20919;-81
2021/08/11 01:45:17;;;;;;;8.25;3.28;;;;;;;19.30;72.18;100579.63;4975195;28;20474;-81
2021/08/11 01:47:56;;;;;;;5.22;3.58;;;;;;;19.23;72.78;100580.00;4988505;28;20449;-81
2021/08/11 01:50:23;;;;;;;3.75;3.15;;;;;;;19.19;73.09;100576.22;4969953;28;20425;-81
2021/08/11 01:52:50;;;;;;;3.53;3.20;;;;;;;19.20;73.07;100579.78;4969450;28;20625;-81
2021/08/11 01:55:16;;;;;;;7.63;3.58;;;;;;;19.19;73.18;100576.22;4974361;28;20416;-81
2021/08/11 01:57:47;;;;;;;6.00;3.08;;;;;;;19.21;73.06;100584.97;4972464;28;20412;-82
2021/08/11 02:00:12;;;;;;;3.70;3.00;;;;;;;19.17;72.83;100583.94;4976168;28;20407;-82
2021/08/11 02:02:39;;;;;;;4.93;3.40;;;;;;;19.16;72.99;100585.06;4979136;28;20426;-81
2021/08/11 02:05:06;;;;;;;4.60;3.15;;;;;;;19.16;72.97;100587.81;4994095;28;20925;-81
2021/08/11 02:07:33;;;;;;;7.13;3.63;;;;;;;19.16;73.33;100585.84;4966752;28;20428;-81
2021/08/11 02:09:59;;;;;;;4.55;3.50;;;;;;;19.17;73.29;100586.66;4986825;28;20508;-81
2021/08/11 02:12:25;;;;;;;5.72;2.92;;;;;;;19.17;73.34;100587.50;4981406;28;20423;-81
2021/08/11 02:14:52;;;;;;;6.10;2.83;;;;;;;19.18;73.38;100589.13;4975258;28;20393;-81
2021/08/11 02:17:19;;;;;;;6.47;3.25;;;;;;;19.18;73.02;100583.63;4967935;28;20435;-81
2021/08/11 02:19:44;;;;;;;4.70;3.55;;;;;;;19.16;73.12;100596.06;4973705;28;20431;-81
2021/08/11 02:22:10;;;;;;;3.50;3.20;;;;;;;19.14;73.24;100588.09;4981795;28;20416;-81
2021/08/11 02:24:36;;;;;;;5.67;3.37;;;;;;;19.15;73.14;100589.75;4992273;28;20406;-81
2021/08/11 02:27:05;;;;;;;3.75;2.83;;;;;;;19.17;72.70;100594.91;4984746;28;20411;-81
2021/08/11 02:29:47;;;;;;;5.47;2.70;;;;;;;19.16;72.15;100594.09;4968087;28;20895;-81
2021/08/11 02:32:12;;;;;;;17.40;3.40;;;;;;;19.13;72.19;100593.91;4973572;28;20518;-80
2021/08/11 02:34:50;;;;;;;4.10;2.90;;;;;;;19.08;72.11;100586.53;4983932;28;20587;-81
2021/08/11 02:37:20;;;;;;;2.90;2.60;;;;;;;19.02;72.18;100589.66;4968519;28;20411;-82
2021/08/11 02:39:52;;;;;;;4.07;2.70;;;;;;;18.96;72.00;100588.13;5009345;28;20398;-81
2021/08/11 02:42:26;;;;;;;7.33;2.93;;;;;;;18.93;72.24;100588.72;4980575;28;20427;-81
2021/08/11 02:44:54;;;;;;;3.78;3.20;;;;;;;18.90;72.31;100587.34;4974612;28;20399;-82
2021/08/11 02:47:22;;;;;;;4.45;3.88;;;;;;;18.84;72.80;100588.53;4974023;28;20419;-81
2021/08/11 02:49:48;;;;;;;3.55;3.17;;;;;;;18.79;72.73;100583.13;4984975;28;20748;-81
2021/08/11 02:52:14;;;;;;;4.55;3.17;;;;;;;18.76;72.75;100586.47;4964257;28;20423;-81
2021/08/11 02:54:41;;;;;;;7.20;3.13;;;;;;;18.71;72.80;100583.78;4974078;28;20412;-81
2021/08/11 02:57:08;;;;;;;3.13;2.85;;;;;;;18.69;72.78;100585.19;4988137;28;20466;-82
2021/08/11 02:59:34;;;;;;;3.50;3.23;;;;;;;18.65;72.79;100582.22;4976782;28;20410;-81
2021/08/11 03:01:59;;;;;;;4.90;2.60;;;;;;;18.63;72.75;100578.97;4980110;28;20423;-82
2021/08/11 03:04:25;;;;;;;4.27;3.17;;;;;;;18.63;72.73;100588.03;4974122;28;20447;-81
2021/08/11 03:06:50;;;;;;;3.50;3.07;;;;;;;18.63;72.67;100577.06;4988284;28;20419;-81
2021/08/11 03:09:16;;;;;;;3.53;3.00;;;;;;;18.63;73.14;100585.28;4974334;28;20481;-81
2021/08/11 03:11:42;;;;;;;7.03;2.67;;;;;;;18.59;73.28;100591.66;4973075;28;20416;-81
2021/08/11 03:14:12;;;;;;;3.00;2.80;;;;;;;18.57;73.45;100594.66;4972611;28;20476;-81
2021/08/11 03:16:38;;;;;;;6.38;2.95;;;;;;;18.55;73.57;100599.66;4982075;28;20510;-82
2021/08/11 03:19:05;;;;;;;6.03;3.30;;;;;;;18.55;73.27;100596.91;4973935;28;20392;-82
2021/08/11 03:21:32;;;;;;;4.72;3.40;;;;;;;18.55;73.27;100601.56;4972068;28;20484;-82
2021/08/11 03:23:57;;;;;;;4.03;3.10;;;;;;;18.55;73.58;100601.56;4987990;28;20889;-81
2021/08/11 03:26:22;;;;;;;3.83;3.20;;;;;;;18.52;73.73;100607.66;4979428;28;20511;-82
2021/08/11 03:28:48;;;;;;;4.73;3.40;;;;;;;18.52;73.58;100602.97;4971671;28;20879;-81
2021/08/11 03:31:13;;;;;;;4.53;3.22;;;;;;;18.52;73.29;100608.47;4971045;28;20425;-81
2021/08/11 03:33:38;;;;;;;5.67;3.13;;;;;;;18.51;73.92;100601.34;4954270;28;20401;-81
2021/08/11 03:36:05;;;;;;;5.53;3.17;;;;;;;18.50;73.80;100593.41;4956580;28;20412;-82
2021/08/11 03:38:30;;;;;;;4.85;3.00;;;;;;;18.52;73.55;100596.66;4973841;28;20396;-81
2021/08/11 03:40:55;;;;;;;3.47;3.17;;;;;;;18.52;73.71;100599.41;4992921;28;20397;-80
2021/08/11 03:43:20;;;;;;;5.60;3.50;;;;;;;18.51;73.46;100603.25;4976287;28;20797;-82
2021/08/11 03:45:46;;;;;;;3.03;2.80;;;;;;;18.50;73.58;100602.47;4975767;28;20396;-82
2021/08/11 03:48:11;;;;;;;9.97;3.40;;;;;;;18.50;73.46;100605.22;4972153;28;20457;-82
2021/08/11 03:50:36;;;;;;;4.87;3.00;;;;;;;18.53;73.70;100606.56;4974438;28;20473;-82
2021/08/11 03:53:02;;;;;;;3.17;2.87;;;;;;;18.54;73.55;100613.69;4972058;28;20467;-81
2021/08/11 03:55:31;;;;;;;5.13;3.20;;;;;;;18.58;73.05;100609.22;5007710;28;20406;-82
2021/08/11 03:57:58;;;;;;;6.07;3.13;;;;;;;18.61;72.99;100614.13;4975957;28;20403;-82
2021/08/11 04:00:23;;;;;;;6.45;3.33;;;;;;;18.59;72.82;100617.16;4990222;28;20749;-82
2021/08/11 04:02:49;;;;;;;5.83;3.07;;;;;;;18.59;72.34;100613.59;4986570;28;20432;-82
2021/08/11 04:05:14;;;;;;;5.20;2.83;;;;;;;18.54;72.15;100610.94;4972774;28;20411;-82
2021/08/11 04:07:39;;;;;;;4.67;2.73;;;;;;;18.48;72.50;100615.63;4972355;28;20408;-81
2021/08/11 04:10:07;;;;;;;3.50;3.20;;;;;;;18.43;73.05;100618.44;4971969;28;20422;-80
2021/08/11 04:12:32;;;;;;;4.05;2.83;;;;;;;18.45;73.24;100618.94;4977495;28;20433;-82
2021/08/11 04:14:58;;;;;;;3.65;3.35;;;;;;;18.47;73.28;100614.00;4992388;28;20394;-81
2021/08/11 04:17:24;;;;;;;5.80;3.33;;;;;;;18.51;73.48;100619.72;4988354;28;20550;-81
2021/08/11 04:19:49;;;;;;;5.97;3.65;;;;;;;18.53;73.72;100612.88;4986749;28;20406;-81
2021/08/11 04:22:14;;;;;;;7.83;4.10;;;;;;;18.56;73.61;100625.16;4974310;28;20404;-81
2021/08/11 04:24:39;;;;;;;8.97;4.00;;;;;;;18.59;73.90;100624.59;4975912;28;20493;-80
2021/08/11 04:27:05;;;;;;;6.95;3.45;;;;;;;18.60;73.86;100627.06;4982351;28;20427;-81
2021/08/11 04:29:30;;;;;;;6.30;3.07;;;;;;;18.62;73.47;100629.47;4971606;28;20416;-82
2021/08/11 04:31:55;;;;;;;5.10;3.43;;;;;;;18.61;73.85;100628.66;4975477;28;20408;-81
2021/08/11 04:34:21;;;;;;;7.67;3.93;;;;;;;18.60;74.04;100631.72;4971709;28;20416;-81
2021/08/11 04:36:46;;;;;;;4.07;3.30;;;;;;;18.60;74.16;100638.03;4972823;28;20419;-81
2021/08/11 04:39:11;;;;;;;6.53;3.67;;;;;;;18.58;74.41;100639.41;4982532;28;20412;-81
2021/08/11 04:41:36;;;;;;;4.30;3.40;;;;;;;18.60;74.24;100639.94;4971571;28;20810;-82
2021/08/11 04:44:03;;;;;;;3.90;3.40;;;;;;;18.61;74.06;100638.81;4972634;28;20439;-81
2021/08/11 04:46:28;;;;;;;5.72;3.75;;;;;;;18.60;74.00;100642.69;4971860;28;20412;-82
2021/08/11 04:48:54;;;;;;;5.00;3.97;;;;;;;18.54;74.22;100641.13;4991388;28;20448;-82
2021/08/11 04:51:20;;;;;;;4.57;3.87;;;;;;;18.50;74.47;100642.81;4969143;28;20756;-82
2021/08/11 04:53:46;;;;;;;4.63;3.33;;;;;;;18.53;74.36;100634.81;4970511;28;20417;-82
2021/08/11 04:56:11;;;;;;;5.77;3.30;;;;;;;18.55;74.74;100643.56;4969955;28;20427;-81
2021/08/11 04:58:36;;;;;;;4.40;3.47;;;;;;;18.58;74.90;100639.41;4972506;28;20462;-81
2021/08/11 05:01:01;;;;;;;4.27;3.67;;;;;;;18.60;75.19;100639.94;4970434;28;20400;-81
2021/08/11 05:03:27;;;;;;;4.27;3.50;;;;;;;18.61;75.18;100647.06;4954162;28;20933;-81
2021/08/11 05:05:52;;;;;;;3.70;3.37;;;;;;;18.63;75.19;100645.66;4976307;28;20414;-81
2021/08/11 05:08:17;;;;;;;3.47;3.20;;;;;;;18.67;75.09;100643.94;4960207;28;20420;-81
2021/08/11 05:10:42;;;;;;;4.67;3.40;;;;;;;18.73;75.26;100647.47;4958891;28;21145;-81
2021/08/11 05:13:08;;;;;;;4.17;3.50;;;;;;;18.76;75.23;100646.88;4960334;28;20419;-82
2021/08/11 05:15:33;;;;;;;4.17;3.87;;;;;;;18.80;75.19;100650.69;4977266;28;20423;-81
2021/08/11 05:17:58;;;;;;;6.83;4.07;;;;;;;18.83;74.81;100650.09;4962321;28;20556;-82
2021/08/11 05:20:24;;;;;;;5.97;3.28;;;;;;;18.84;74.87;100643.47;4962594;28;20420;-81
2021/08/11 05:22:49;;;;;;;5.73;3.83;;;;;;;18.90;74.88;100636.00;4962933;28;21071;-81
2021/08/11 05:25:15;;;;;;;5.70;3.87;;;;;;;18.87;74.93;100642.06;4960864;28;20575;-81
2021/08/11 05:27:42;;;;;;;5.20;4.20;;;;;;;18.84;75.83;100643.47;4962480;28;20423;-81
2021/08/11 05:30:08;;;;;;;3.80;3.57;;;;;;;18.90;75.84;100646.97;4962972;28;20529;-81
2021/08/11 05:32:34;;;;;;;5.33;3.50;;;;;;;18.90;75.59;100644.22;4962384;28;22017;-81
2021/08/11 05:35:00;;;;;;;4.50;3.40;;;;;;;18.92;75.88;100644.75;4962633;28;20435;-81
2021/08/11 05:37:25;;;;;;;4.05;3.75;;;;;;;18.92;76.06;100651.06;4964137;28;20420;-80
2021/08/11 05:39:51;;;;;;;7.20;4.07;;;;;;;18.93;76.09;100654.63;4961300;28;20986;-83
2021/08/11 05:42:16;;;;;;;4.63;4.20;;;;;;;18.94;76.13;100653.50;4959194;28;20431;-81
2021/08/11 05:44:41;;;;;;;5.57;4.00;;;;;;;18.96;75.99;100659.53;4960627;28;20835;-82
2021/08/11 05:47:08;;;;;;;5.47;3.83;;;;;;;18.97;76.15;100659.22;4960414;28;20415;-81
2021/08/11 05:49:36;;;;;;;3.78;3.42;;;;;;;19.01;75.79;100656.69;4959757;28;20500;-84
2021/08/11 05:52:02;;;;;;;6.78;3.90;;;;;;;19.05;75.51;100660.50;4977827;28;20416;-83
2021/08/11 05:54:27;;;;;;;4.90;3.72;;;;;;;19.06;74.99;100659.38;4962383;28;20439;-84
2021/08/11 05:56:53;;;;;;;7.03;4.05;;;;;;;19.08;75.19;100665.38;4971106;28;20495;-82
2021/08/11 05:59:18;;;;;;;8.43;3.87;;;;;;;19.07;75.18;100658.25;4968967;28;20412;-82
2021/08/11 06:01:43;;;;;;;4.60;4.03;;;;;;;19.09;75.14;100665.09;4964728;28;20427;-83
2021/08/11 06:04:09;;;;;;;6.83;4.13;;;;;;;19.08;75.27;100671.69;4963708;28;20418;-84
2021/08/11 06:06:34;;;;;;;4.30;3.80;;;;;;;19.10;75.25;100666.72;4970532;28;21026;-84
2021/08/11 06:09:02;;;;;;;8.43;4.60;;;;;;;19.12;74.94;100671.94;4971392;28;20419;-83
2021/08/11 06:11:27;;;;;;;5.47;4.45;;;;;;;19.17;74.93;100669.09;4971178;28;20770;-82
2021/08/11 06:13:52;;;;;;;5.13;4.47;;;;;;;19.18;74.54;100671.56;4972095;28;20991;-85
2021/08/11 06:16:18;;;;;;;4.27;3.87;;;;;;;19.23;74.67;100672.59;4970606;28;20427;-83
2021/08/11 06:18:43;;;;;;;4.23;3.60;;;;;;;19.25;74.48;100676.69;4972827;28;20428;-84
2021/08/11 06:21:08;;;;;;;6.47;4.20;;;;;;;19.29;74.25;100682.41;4976522;28;20428;-85
2021/08/11 06:23:34;;;;;;;4.53;4.00;;;;;;;19.31;74.18;100675.50;4969517;28;20771;-86
2021/08/11 06:25:59;;;;;;;5.57;4.00;;;;;;;19.31;73.81;100678.25;4972684;28;20434;-87
2021/08/11 06:28:24;;;;;;;4.17;3.60;;;;;;;19.29;73.39;100669.50;4969241;28;20408;-83
2021/08/11 06:30:50;;;;;;;7.73;4.20;;;;;;;19.31;73.56;100674.66;4977561;28;21407;-83
2021/08/11 06:33:15;;;;;;;4.15;3.33;;;;;;;19.35;73.69;100657.28;4971719;28;20416;-83
2021/08/11 06:35:41;;;;;;;4.90;4.07;;;;;;;19.42;73.15;100656.97;4971837;28;20408;-85
2021/08/11 06:38:06;;;;;;;6.22;3.45;;;;;;;19.45;72.74;100659.94;4968943;28;20415;-80
2021/08/11 06:40:36;;;;;;;7.80;4.10;;;;;;;19.47;73.15;100660.44;4972311;28;20880;-79
2021/08/11 06:43:01;;;;;;;5.57;3.08;;;;;;;19.55;73.15;100656.19;4972615;28;20880;-80
2021/08/11 06:45:26;;;;;;;5.57;4.00;;;;;;;19.62;72.74;100660.19;4964845;28;20452;-80
2021/08/11 06:47:52;;;;;;;3.50;3.30;;;;;;;19.68;72.33;100653.50;4970306;28;20783;-80
2021/08/11 06:50:20;;;;;;;4.40;4.00;;;;;;;19.72;72.48;100647.41;4965429;28;20568;-80
2021/08/11 06:52:46;;;;;;;5.75;4.03;;;;;;;19.75;72.08;100655.88;4967132;28;20422;-78
2021/08/11 06:55:15;;;;;;;6.70;4.10;;;;;;;19.80;72.08;100660.44;4970678;28;20416;-79
2021/08/11 06:57:41;;;;;;;7.65;4.35;;;;;;;19.84;72.29;100662.31;4971095;28;20408;-81
2021/08/11 07:00:08;;;;;;;5.78;4.00;;;;;;;19.90;72.11;100652.84;4970072;28;20447;-81
2021/08/11 07:02:33;;;;;;;8.43;3.85;;;;;;;19.93;72.09;100654.16;4978189;28;20431;-80
2021/08/11 07:04:59;;;;;;;5.83;3.80;;;;;;;20.01;71.66;100659.81;4981874;28;20412;-81
2021/08/11 07:07:24;;;;;;;10.43;4.30;;;;;;;20.08;71.62;100656.66;4971069;28;20568;-81
2021/08/11 07:09:49;;;;;;;6.13;4.10;;;;;;;20.10;71.53;100659.91;4968768;28;20452;-82
2021/08/11 07:12:15;;;;;;;4.10;3.70;;;;;;;20.13;71.50;100665.63;4960587;28;20412;-82
2021/08/11 07:14:40;;;;;;;9.10;4.20;;;;;;;20.13;71.23;100671.13;4973368;28;20425;-84
2021/08/11 07:17:05;;;;;;;8.00;3.83;;;;;;;20.16;71.37;100661.44;4970790;28;20446;-83
2021/08/11 07:19:31;;;;;;;6.35;5.03;;;;;;;20.22;71.63;100664.94;4981590;28;20428;-83
2021/08/11 07:21:56;;;;;;;6.40;3.73;;;;;;;20.25;71.71;100659.66;4967517;28;20423;-83
2021/08/11 07:24:22;;;;;;;4.30;3.50;;;;;;;20.27;71.18;100668.44;4975654;28;20483;-85
2021/08/11 07:26:47;;;;;;;8.10;4.47;;;;;;;20.30;71.21;100662.31;4959443;28;22334;-82
2021/08/11 07:29:12;;;;;;;4.30;3.90;;;;;;;20.34;71.22;100662.53;4960981;28;20463;-84
2021/08/11 07:31:38;;;;;;;6.60;3.63;;;;;;;20.40;70.59;100664.06;4957338;28;20490;-83
2021/08/11 07:34:03;;;;;;;6.93;3.43;;;;;;;20.46;70.54;100665.59;4958595;28;20416;-83
2021/08/11 07:36:29;;;;;;;5.30;3.67;;;;;;;20.52;70.50;100661.59;4966619;28;20412;-83
2021/08/11 07:38:54;;;;;;;3.80;3.47;;;;;;;20.63;70.31;100674.06;4980493;28;20431;-81
2021/08/11 07:41:19;;;;;;;4.23;3.70;;;;;;;20.70;70.09;100664.28;4985455;28;20427;-83
2021/08/11 07:43:45;;;;;;;6.93;3.47;;;;;;;20.83;69.96;100664.56;4972996;28;20483;-83
2021/08/11 07:46:10;;;;;;;6.57;4.27;;;;;;;20.96;69.39;100661.78;4972123;28;20476;-83
2021/08/11 07:48:35;;;;;;;5.73;3.40;;;;;;;21.11;69.06;100666.97;4972315;28;20450;-83
2021/08/11 07:51:01;;;;;;;6.40;4.03;;;;;;;21.17;68.76;100665.72;4982586;28;20792;-83
2021/08/11 07:53:26;;;;;;;9.10;4.17;;;;;;;21.11;68.57;100669.72;4971414;28;20905;-83
2021/08/11 07:55:51;;;;;;;5.43;3.90;;;;;;;21.05;68.52;100665.44;4971738;28;20408;-83
2021/08/11 07:58:17;;;;;;;6.15;3.30;;;;;;;21.05;68.47;100672.88;4970257;28;20420;-83
2021/08/11 08:00:42;;;;;;;4.07;3.70;;;;;;;21.09;68.63;100665.63;4966953;28;20999;-83
2021/08/11 08:03:07;;;;;;;7.30;4.03;;;;;;;21.12;68.97;100678.81;4956426;28;20426;-83
2021/08/11 08:05:33;;;;;;;4.00;3.60;;;;;;;21.16;69.34;100674.31;4980534;28;20908;-83
2021/08/11 08:07:59;;;;;;;6.47;3.57;;;;;;;21.18;69.01;100683.91;4975579;28;20408;-83
2021/08/11 08:10:25;;;;;;;3.80;3.50;;;;;;;21.20;69.10;100673.41;4973149;28;20792;-82
2021/08/11 08:12:50;;;;;;;7.50;4.00;;;;;;;21.25;68.45;100675.22;4987186;28;20414;-84
2021/08/11 08:15:16;;;;;;;3.40;3.10;;;;;;;21.46;68.31;100676.38;4974869;28;20903;-83
2021/08/11 08:17:42;;;;;;;5.60;3.50;;;;;;;21.72;67.38;100665.53;4971791;28;20414;-83
2021/08/11 08:20:08;;;;;;;4.43;3.30;;;;;;;21.86;66.49;100671.00;4971178;28;20419;-83
2021/08/11 08:22:34;;;;;;;6.85;3.63;;;;;;;21.82;66.68;100665.28;4971302;28;20432;-84
2021/08/11 08:24:59;;;;;;;5.40;3.57;;;;;;;21.76;66.75;100666.56;4972954;28;20447;-83
2021/08/11 08:27:25;;;;;;;6.03;3.70;;;;;;;21.76;67.34;100668.50;4971731;28;20764;-83
2021/08/11 08:29:51;;;;;;;7.35;3.90;;;;;;;21.77;67.61;100668.16;4972887;28;20474;-84
2021/08/11 08:32:17;;;;;;;5.32;3.65;;;;;;;21.79;67.73;100668.69;4971564;28;20412;-84
2021/08/11 08:34:43;;;;;;;5.63;3.90;;;;;;;21.83;67.71;100668.88;4972147;28;20412;-83
2021/08/11 08:37:08;;;;;;;7.85;4.50;;;;;;;21.86;68.14;100666.31;4981943;28;20470;-84
2021/08/11 08:39:34;;;;;;;8.63;3.87;;;;;;;21.91;68.22;100673.66;4989673;28;20403;-84
2021/08/11 08:42:00;;;;;;;4.50;3.90;;;;;;;22.00;67.78;100672.56;4983575;28;20512;-82
2021/08/11 08:44:25;;;;;;;7.07;3.80;;;;;;;22.07;67.11;100670.19;4972327;28;20403;-83
2021/08/11 08:46:52;;;;;;;6.50;3.83;;;;;;;22.13;67.07;100677.19;4975087;28;20412;-83
2021/08/11 08:49:18;;;;;;;4.57;3.73;;;;;;;22.22;66.52;100672.56;4983732;28;20812;-83
2021/08/11 08:51:48;;;;;;;4.22;3.80;;;;;;;22.32;66.24;100670.63;4973124;28;20419;-83
2021/08/11 08:54:17;;;;;;;7.93;4.22;;;;;;;22.43;66.65;100670.03;4995874;28;20418;-84
2021/08/11 08:56:42;;;;;;;4.97;4.35;;;;;;;22.58;66.06;100679.84;4975151;28;20483;-83
2021/08/11 08:59:07;;;;;;;4.53;3.93;;;;;;;22.73;66.07;100679.44;4991475;28;20929;-84
2021/08/11 09:01:34;;;;;;;6.53;5.10;;;;;;;22.86;65.56;100674.91;4975179;28;20432;-83
2021/08/11 09:04:00;;;;;;;9.45;4.95;;;;;;;22.97;65.30;100681.78;4975488;28;20447;-84
2021/08/11 09:06:31;;;;;;;5.90;4.47;;;;;;;23.08;65.03;100677.59;4979290;28;20466;-83
2021/08/11 09:09:01;;;;;;;6.82;5.20;;;;;;;23.24;65.41;100682.31;4975303;28;20407;-83
2021/08/11 09:11:27;;;;;;;6.60;4.75;;;;;;;23.43;64.00;100676.50;4973224;28;20447;-83
2021/08/11 09:14:16;;;;;;;10.50;5.00;;;;;;;23.68;63.82;100688.69;4975927;28;20559;-85
2021/08/11 09:16:52;;;;;;;8.13;4.80;;;;;;;23.94;62.77;100686.69;4971100;28;20425;-84
2021/08/11 09:19:18;;;;;;;6.47;4.55;;;;;;;24.26;61.34;100680.63;4965277;28;21222;-83
2021/08/11 09:22:16;;;;;;;10.07;4.80;;;;;;;24.32;61.23;100689.56;4972909;28;20419;-83
2021/08/11 09:24:42;;;;;;;10.10;5.35;;;;;;;24.29;61.01;100687.47;4949929;28;20428;-83
2021/08/11 09:27:24;;;;;;;13.20;5.07;;;;;;;24.42;60.50;100694.75;4973690;28;20577;-83
2021/08/11 09:30:05;;;;;;;8.60;5.07;;;;;;;24.43;60.60;100695.56;4973506;28;20408;-84
2021/08/11 09:32:32;;;;;;;8.13;4.60;;;;;;;24.42;60.29;100691.97;4981243;28;20450;-85
2021/08/11 09:34:57;;;;;;;8.40;4.60;;;;;;;24.57;60.09;100694.19;4975458;28;20392;-83
2021/08/11 09:37:43;;;;;;;6.33;4.20;;;;;;;24.72;59.45;100690.06;4972664;28;20416;-85
2021/08/11 09:40:21;;;;;;;5.70;3.83;;;;;;;24.97;58.85;100691.09;4968331;28;20503;-85
2021/08/11 09:42:47;;;;;;;5.45;3.90;;;;;;;25.49;57.34;100692.34;4974822;28;20467;-83
2021/08/11 09:45:15;;;;;;;5.13;3.72;;;;;;;25.87;55.91;100696.94;4983206;28;20415;-85
2021/08/11 09:48:00;;;;;;;4.63;3.72;;;;;;;25.78;55.43;100697.81;4972685;28;20770;-83
2021/08/11 09:50:44;;;;;;;10.18;4.40;;;;;;;25.58;56.44;100689.53;4973255;28;20412;-84
2021/08/11 09:53:10;;;;;;;12.32;4.45;;;;;;;25.64;56.55;100680.66;4972668;28;20432;-85
2021/08/11 09:56:09;;;;;;;7.95;4.35;;;;;;;26.46;53.94;100691.91;4975589;28;20471;-85
2021/08/11 09:58:40;;;;;;;5.53;3.15;;;;;;;27.21;51.29;100691.22;4941679;28;20404;-84
2021/08/11 10:01:11;;;;;;;8.10;4.78;;;;;;;27.88;50.04;100694.41;4974846;28;20392;-86
2021/08/11 10:03:59;;;;;;;4.03;3.20;;;;;;;29.06;46.73;100700.72;4956904;28;20448;-86
2021/08/11 10:06:26;;;;;;;3.50;3.05;;;;;;;29.23;44.55;100703.13;4978460;28;20451;-85
2021/08/11 10:08:51;;;;;;;6.50;3.17;;;;;;;28.59;44.89;100705.50;4971873;28;20419;-86
2021/08/11 10:11:34;;;;;;;4.18;2.78;;;;;;;28.54;45.97;100714.97;4972502;28;20408;-85
2021/08/11 10:13:59;;;;;;;5.15;2.50;;;;;;;29.93;42.99;100708.66;4975271;28;20446;-86
2021/08/11 10:16:25;;;;;;;2.63;2.43;;;;;;;31.18;39.38;100713.28;4986567;28;20918;-85
2021/08/11 10:18:50;;;;;;;5.27;2.67;;;;;;;30.63;40.48;100708.34;4973251;28;20419;-85
2021/08/11 10:21:16;;;;;;;5.85;2.50;;;;;;;30.30;41.26;100715.34;4956907;28;20953;-85
2021/08/11 10:23:42;;;;;;;2.87;2.57;;;;;;;29.58;41.27;100714.28;4974822;28;20428;-85
2021/08/11 10:26:07;;;;;;;6.88;2.20;;;;;;;29.40;42.32;100713.09;4977483;28;20609;-85
2021/08/11 10:28:35;;;;;;;2.80;2.57;;;;;;;29.92;42.10;100706.22;4972005;28;20410;-87
2021/08/11 10:31:00;;;;;;;2.97;2.10;;;;;;;31.32;39.48;100715.47;4981154;28;20757;-85
2021/08/11 10:33:27;;;;;;;4.80;2.40;;;;;;;33.06;35.66;100707.00;4972503;28;20412;-87
2021/08/11 10:35:54;;;;;;;4.47;2.63;;;;;;;34.20;33.67;100715.63;4972373;28;20447;-87
2021/08/11 10:38:19;;;;;;;2.92;2.17;;;;;;;34.99;31.71;100710.84;4973064;28;20470;-88
2021/08/11 10:40:51;;;;;;;4.13;2.33;;;;;;;35.33;30.87;100714.84;4970889;28;20412;-87
2021/08/11 10:43:17;;;;;;;2.30;1.87;;;;;;;36.51;28.62;100711.06;4972235;28;20488;-84
2021/08/11 10:45:44;;;;;;;1.80;1.70;;;;;;;37.22;28.04;100710.47;4972341;28;20502;-86
2021/08/11 10:48:16;;;;;;;2.63;1.98;;;;;;;37.41;28.36;100707.03;4972614;28;20498;-88
2021/08/11 10:50:45;;;;;;;2.60;2.35;;;;;;;37.62;27.93;100703.97;4978448;28;20422;-87
2021/08/11 10:53:12;;;;;;;2.10;1.90;;;;;;;37.67;27.70;100706.34;4974850;28;20431;-86
2021/08/11 10:55:48;;;;;;;3.13;1.70;;;;;;;38.04;26.39;100704.66;4973600;28;20427;-87
2021/08/11 10:58:43;;;;;;;2.30;2.10;;;;;;;38.35;25.56;100711.88;4984748;28;20457;-86
2021/08/11 11:01:33;;;;;;;1.88;1.77;;;;;;;38.32;25.34;100715.56;4964032;28;20433;-88
2021/08/11 11:03:59;;;;;;;2.10;1.85;;;;;;;38.89;24.63;100710.59;4969177;28;20449;-88
2021/08/11 11:06:44;;;;;;;2.00;1.90;;;;;;;39.32;23.90;100707.78;4981870;28;20494;-90
2021/08/11 11:09:17;;;;;;;2.40;1.90;;;;;;;38.62;25.60;100703.38;4954126;28;20421;-87
2021/08/11 11:11:43;;;;;;;4.18;1.80;;;;;;;39.12;25.43;100701.28;4959798;28;20408;-89
2021/08/11 11:14:46;;;;;;;2.17;1.98;;;;;;;39.50;23.92;100698.13;4974051;28;20756;-90
2021/08/11 11:17:15;;;;;;;2.40;2.10;;;;;;;39.73;23.58;100695.25;4972976;28;20436;-87
2021/08/11 11:20:07;;;;;;;2.33;2.00;;;;;;;40.15;23.93;100693.50;4975616;28;20764;-88
2021/08/11 11:22:39;;;;;;;2.30;2.10;;;;;;;40.67;22.17;100685.78;4980148;28;20745;-87
2021/08/11 11:25:07;;;;;;;2.65;2.15;;;;;;;40.83;23.25;100682.09;4973795;28;20396;-90
2021/08/11 11:27:38;;;;;;;4.32;2.05;;;;;;;40.69;22.90;100686.13;4973311;28;20404;-89